Time;durP1;ratioP1;P1;durP2;ratioP2;P2;SDS_P1;SDS_P2;PMS_P1;PMS_P2;Temp;Humidity;BMP_temperature;BMP_pressure;BME280_temperature;BME280_humidity;BME280_pressure;Samples;Min_cycle;Max_cycle;Signal;HPM_P1;HPM_P2
2022/06/01 00:00:26;;;;;;;4.00;1.70;;;12.00;99.90;;;;;;4987366;28;20203;-79
2022/06/01 00:02:54;;;;;;;3.83;1.90;;;12.00;99.90;;;;;;4987152;28;20212;-78
2022/06/01 00:05:21;;;;;;;3.87;1.50;;;12.00;99.90;;;;;;4988209;28;20204;-78
2022/06/01 00:07:49;;;;;;;5.37;2.50;;;12.00;99.90;;;;;;4987817;28;20200;-78
2022/06/01 00:10:17;;;;;;;3.70;1.97;;;12.00;99.90;;;;;;4984372;28;20208;-78
2022/06/01 00:12:44;;;;;;;3.57;1.50;;;12.00;99.90;;;;;;4968936;28;20300;-78
2022/06/01 00:15:13;;;;;;;1.67;1.40;;;12.00;99.90;;;;;;4968975;28;20223;-78
2022/06/01 00:17:40;;;;;;;2.37;1.40;;;12.00;99.90;;;;;;4968926;28;20201;-78
2022/06/01 00:20:10;;;;;;;3.03;1.30;;;11.90;99.90;;;;;;4970819;28;20656;-79
2022/06/01 00:22:37;;;;;;;2.43;1.30;;;12.00;99.90;;;;;;4988168;28;20214;-79
2022/06/01 00:25:07;;;;;;;3.77;1.30;;;12.00;99.90;;;;;;4987468;28;20224;-79
2022/06/01 00:27:34;;;;;;;1.70;1.30;;;12.00;99.90;;;;;;4988229;28;20223;-78
2022/06/01 00:30:01;;;;;;;2.00;1.33;;;12.00;99.90;;;;;;4986549;28;21105;-79
2022/06/01 00:32:29;;;;;;;3.27;1.90;;;12.00;99.90;;;;;;4987541;28;20302;-79
2022/06/01 00:34:56;;;;;;;2.40;1.50;;;12.00;99.90;;;;;;4987658;28;20271;-78
2022/06/01 00:37:24;;;;;;;4.03;1.40;;;12.00;99.90;;;;;;4974369;28;20855;-79
2022/06/01 00:39:53;;;;;;;3.77;2.10;;;12.00;99.90;;;;;;4967575;28;20347;-79
2022/06/01 00:42:21;;;;;;;4.80;1.80;;;12.00;99.90;;;;;;4967663;28;20263;-78
2022/06/01 00:44:49;;;;;;;3.30;1.40;;;12.00;99.90;;;;;;4972683;28;20212;-78
2022/06/01 00:47:17;;;;;;;3.53;1.23;;;12.00;99.90;;;;;;4987178;28;20827;-78
2022/06/01 00:49:51;;;;;;;2.00;1.20;;;12.00;99.90;;;;;;4987539;28;20398;-79
2022/06/01 00:52:35;;;;;;;3.40;1.33;;;12.00;99.90;;;;;;4985432;28;20230;-78
2022/06/01 00:55:09;;;;;;;4.60;1.20;;;12.00;99.90;;;;;;4987090;28;20306;-78
2022/06/01 00:57:36;;;;;;;2.20;1.20;;;11.90;99.90;;;;;;4987357;28;20204;-78
2022/06/01 01:00:08;;;;;;;3.20;1.20;;;11.90;99.90;;;;;;4985040;28;20234;-78
2022/06/01 01:02:34;;;;;;;1.77;1.10;;;11.90;99.90;;;;;;4987200;28;20635;-78
2022/06/01 01:05:04;;;;;;;3.30;1.30;;;11.90;99.90;;;;;;4987155;28;20192;-79
2022/06/01 01:07:31;;;;;;;3.60;1.33;;;11.90;99.90;;;;;;4970441;28;20235;-78
2022/06/01 01:09:58;;;;;;;4.53;1.10;;;11.90;99.90;;;;;;4967391;28;20201;-79
2022/06/01 01:12:26;;;;;;;3.10;1.40;;;11.90;99.90;;;;;;4967271;28;20228;-79
2022/06/01 01:15:14;;;;;;;2.00;1.10;;;11.90;99.90;;;;;;4966990;28;20212;-78
2022/06/01 01:17:41;;;;;;;3.00;1.50;;;11.90;99.90;;;;;;4967887;28;20601;-79
2022/06/01 01:20:09;;;;;;;5.20;1.67;;;11.90;99.90;;;;;;4968977;28;20529;-79
2022/06/01 01:22:44;;;;;;;1.20;1.00;;;11.90;99.90;;;;;;4987099;28;20211;-79
2022/06/01 01:25:24;;;;;;;1.73;1.40;;;11.90;99.90;;;;;;4986650;28;20334;-78
2022/06/01 01:27:54;;;;;;;2.47;1.30;;;11.90;99.90;;;;;;4985272;28;20249;-79
2022/06/01 01:30:43;;;;;;;2.43;1.30;;;11.90;99.90;;;;;;4986419;28;20196;-78
2022/06/01 01:33:13;;;;;;;2.27;1.50;;;11.90;99.90;;;;;;4976517;28;20222;-78
2022/06/01 01:35:41;;;;;;;3.40;1.70;;;11.90;99.90;;;;;;4985450;28;20219;-78
2022/06/01 01:38:10;;;;;;;2.37;1.50;;;11.90;99.90;;;;;;4986580;28;20544;-78
2022/06/01 01:40:39;;;;;;;4.27;2.10;;;11.80;99.90;;;;;;4985458;28;20530;-78
2022/06/01 01:43:07;;;;;;;3.07;1.97;;;11.80;99.90;;;;;;4984843;28;20230;-79
2022/06/01 01:45:37;;;;;;;3.53;2.57;;;11.80;99.90;;;;;;4986533;28;20215;-80
2022/06/01 01:48:05;;;;;;;6.13;3.70;;;11.70;99.90;;;;;;4984797;28;20215;-80
2022/06/01 01:50:33;;;;;;;4.80;4.40;;;11.70;99.90;;;;;;4985664;28;20231;-79
2022/06/01 01:53:00;;;;;;;6.93;4.80;;;11.60;99.90;;;;;;4985800;28;20211;-78
2022/06/01 01:55:39;;;;;;;5.67;4.60;;;11.60;99.90;;;;;;4985140;28;20214;-79
2022/06/01 01:58:14;;;;;;;5.83;4.53;;;11.60;99.90;;;;;;4966158;28;20207;-79
2022/06/01 02:00:47;;;;;;;6.83;4.00;;;11.60;99.90;;;;;;4967134;28;20200;-78
2022/06/01 02:03:18;;;;;;;5.13;4.63;;;11.50;99.90;;;;;;4966209;28;20599;-79
2022/06/01 02:06:07;;;;;;;5.67;4.00;;;11.50;99.90;;;;;;4986919;28;20210;-79
2022/06/01 02:08:38;;;;;;;5.03;4.37;;;11.50;99.90;;;;;;4986314;28;20203;-79
2022/06/01 02:13:59;;;;;;;5.07;3.80;;;11.40;99.90;;;;;;4970224;28;20204;-78
2022/06/01 02:16:30;;;;;;;3.97;3.63;;;11.30;99.90;;;;;;4966671;28;20211;-79
2022/06/01 02:19:01;;;;;;;3.97;3.57;;;11.30;99.90;;;;;;4967689;28;20306;-79
2022/06/01 02:21:29;;;;;;;4.77;3.40;;;11.20;99.90;;;;;;4977873;28;20230;-79
2022/06/01 02:23:59;;;;;;;5.17;4.40;;;11.20;99.90;;;;;;4985632;28;20203;-80
2022/06/01 02:26:26;;;;;;;4.37;3.97;;;11.20;99.90;;;;;;4985659;28;20239;-79
2022/06/01 02:29:02;;;;;;;4.70;4.20;;;11.10;99.90;;;;;;4986224;28;20204;-77
2022/06/01 02:31:29;;;;;;;5.80;3.90;;;11.10;99.90;;;;;;4986971;28;20289;-78
2022/06/01 02:33:57;;;;;;;4.00;3.47;;;11.10;99.90;;;;;;4989033;28;20223;-78
2022/06/01 02:36:27;;;;;;;4.70;3.33;;;11.10;99.90;;;;;;4989997;28;20208;-78
2022/06/01 02:38:56;;;;;;;3.50;3.20;;;11.00;99.90;;;;;;4988056;28;20672;-78
2022/06/01 02:44:09;;;;;;;3.37;3.07;;;10.90;99.90;;;;;;4989842;28;20367;-80
2022/06/01 02:46:36;;;;;;;5.30;3.77;;;10.90;99.90;;;;;;4988529;28;20211;-79
2022/06/01 02:49:04;;;;;;;6.30;3.97;;;10.90;99.90;;;;;;4989470;28;20729;-78
2022/06/01 02:51:31;;;;;;;5.23;3.90;;;10.90;99.90;;;;;;4978925;28;20216;-78
2022/06/01 02:53:58;;;;;;;6.57;4.27;;;10.80;99.90;;;;;;4969926;28;20209;-78
2022/06/01 02:56:26;;;;;;;5.37;3.90;;;10.80;99.90;;;;;;4987358;28;20592;-79
2022/06/01 02:58:53;;;;;;;5.23;3.73;;;10.80;99.90;;;;;;4989285;28;20231;-80
2022/06/01 03:01:22;;;;;;;3.80;3.20;;;10.70;99.90;;;;;;4990032;28;20210;-78
2022/06/01 03:03:49;;;;;;;5.30;3.80;;;10.70;99.90;;;;;;4990771;28;20608;-79
2022/06/01 03:06:16;;;;;;;4.17;3.60;;;10.70;99.90;;;;;;4988976;28;20207;-78
2022/06/01 03:08:45;;;;;;;5.40;4.03;;;10.70;99.90;;;;;;4989544;28;20196;-79
2022/06/01 03:11:12;;;;;;;6.67;3.53;;;10.70;99.90;;;;;;4987650;28;20258;-78
2022/06/01 03:13:39;;;;;;;3.60;3.30;;;10.70;99.90;;;;;;4969569;28;20211;-79
2022/06/01 03:16:06;;;;;;;4.77;3.70;;;10.70;99.90;;;;;;4969587;28;20901;-80
2022/06/01 03:18:35;;;;;;;4.67;4.17;;;10.70;99.90;;;;;;4970792;28;20247;-78
2022/06/01 03:21:02;;;;;;;6.07;3.97;;;10.70;99.90;;;;;;4969312;28;20539;-78
2022/06/01 03:23:29;;;;;;;6.07;3.67;;;10.60;99.90;;;;;;4972489;28;20324;-79
2022/06/01 03:25:57;;;;;;;4.20;3.80;;;10.60;99.90;;;;;;4989552;28;20231;-77
2022/06/01 03:28:23;;;;;;;4.70;4.17;;;10.60;99.90;;;;;;4988667;28;20207;-78
2022/06/01 03:30:51;;;;;;;3.57;3.27;;;10.60;99.90;;;;;;4989125;28;20200;-78
2022/06/01 03:33:18;;;;;;;6.07;3.87;;;10.60;99.90;;;;;;4987722;28;20597;-78
2022/06/01 03:35:47;;;;;;;4.83;3.37;;;10.60;99.90;;;;;;4988491;28;20299;-78
2022/06/01 03:38:13;;;;;;;4.33;3.93;;;10.50;99.90;;;;;;4988938;28;20215;-78
2022/06/01 03:40:42;;;;;;;4.40;3.70;;;10.50;99.90;;;;;;4989868;28;20258;-77
2022/06/01 03:43:11;;;;;;;4.00;3.60;;;10.50;99.90;;;;;;4986822;28;20212;-78
2022/06/01 03:48:23;;;;;;;4.07;3.40;;;10.50;99.90;;;;;;4988386;28;20625;-78
2022/06/01 03:50:52;;;;;;;4.70;3.20;;;10.50;99.90;;;;;;4989562;28;20262;-76
2022/06/01 03:53:19;;;;;;;3.50;3.20;;;10.50;99.90;;;;;;4987650;28;20212;-79
2022/06/01 03:55:47;;;;;;;5.03;3.23;;;10.50;99.90;;;;;;4988593;28;20219;-79
2022/06/01 03:58:15;;;;;;;5.53;3.37;;;10.50;99.90;;;;;;4987680;28;20208;-78
2022/06/01 04:00:42;;;;;;;3.67;3.17;;;10.50;99.90;;;;;;4989238;28;20231;-78
2022/06/01 04:03:09;;;;;;;3.77;2.90;;;10.50;99.90;;;;;;4988332;28;20296;-79
2022/06/01 04:05:36;;;;;;;3.60;3.17;;;10.50;99.90;;;;;;4987709;28;20603;-78
2022/06/01 04:08:05;;;;;;;5.30;3.13;;;10.60;99.90;;;;;;4988369;28;20290;-77
2022/06/01 04:10:33;;;;;;;3.40;2.90;;;10.60;99.90;;;;;;4988228;28;20207;-79
2022/06/01 04:13:00;;;;;;;5.57;2.77;;;10.60;99.90;;;;;;4987439;28;20307;-78
2022/06/01 04:15:28;;;;;;;4.57;2.57;;;10.60;99.90;;;;;;4988447;28;20299;-77
2022/06/01 04:17:54;;;;;;;2.73;2.30;;;10.60;99.90;;;;;;4987729;28;20253;-78
2022/06/01 04:20:22;;;;;;;4.20;2.93;;;10.60;99.90;;;;;;4987748;28;20228;-78
2022/06/01 04:22:52;;;;;;;3.37;2.63;;;10.60;99.90;;;;;;4987407;28;20986;-78
2022/06/01 04:25:22;;;;;;;2.77;2.50;;;10.60;99.90;;;;;;4988583;28;20290;-77
2022/06/01 04:27:49;;;;;;;5.63;3.33;;;10.70;99.90;;;;;;4988290;28;20208;-78
2022/06/01 04:30:18;;;;;;;6.10;3.37;;;10.70;99.90;;;;;;4968064;28;20580;-77
2022/06/01 04:32:46;;;;;;;4.10;2.80;;;10.70;99.90;;;;;;4968952;28;20481;-78
2022/06/01 04:35:14;;;;;;;4.03;3.40;;;10.70;99.90;;;;;;4968502;28;20292;-78
2022/06/01 04:37:41;;;;;;;4.17;3.00;;;10.70;99.90;;;;;;4968141;28;20279;-79
2022/06/01 04:40:10;;;;;;;3.57;3.27;;;10.70;99.90;;;;;;4968299;28;20227;-77
2022/06/01 04:42:39;;;;;;;3.40;2.93;;;10.80;99.90;;;;;;4968550;28;20251;-78
2022/06/01 04:45:08;;;;;;;3.47;3.17;;;10.80;99.90;;;;;;4967997;28;20204;-77
2022/06/01 04:47:35;;;;;;;4.13;3.50;;;10.80;99.90;;;;;;4968935;28;20291;-77
2022/06/01 04:50:02;;;;;;;3.60;3.30;;;10.80;99.90;;;;;;4968062;28;20203;-77
2022/06/01 04:52:29;;;;;;;4.33;3.33;;;10.80;99.90;;;;;;4985023;28;20303;-78
2022/06/01 04:54:56;;;;;;;5.10;3.10;;;10.80;99.90;;;;;;4987887;28;20192;-78
2022/06/01 04:57:23;;;;;;;3.33;3.00;;;10.80;99.90;;;;;;4987994;28;20204;-78
2022/06/01 04:59:52;;;;;;;4.07;3.67;;;10.80;99.90;;;;;;4986162;28;20314;-79
2022/06/01 05:02:18;;;;;;;4.90;3.80;;;11.00;99.90;;;;;;4987434;28;20314;-77
2022/06/01 05:04:45;;;;;;;5.47;4.30;;;11.50;99.90;;;;;;4986763;28;20210;-77
2022/06/01 05:07:12;;;;;;;5.97;4.77;;;12.10;99.90;;;;;;4986538;28;20204;-79
2022/06/01 05:09:39;;;;;;;4.50;4.10;;;12.70;99.90;;;;;;4987668;28;20548;-78
2022/06/01 05:12:07;;;;;;;4.73;3.90;;;13.40;99.90;;;;;;4984450;28;20519;-79
2022/06/01 05:14:34;;;;;;;4.33;4.03;;;14.00;99.90;;;;;;4968202;28;20216;-79
2022/06/01 05:17:02;;;;;;;4.03;3.63;;;14.60;99.90;;;;;;4967682;28;20199;-77
2022/06/01 05:19:29;;;;;;;5.00;2.97;;;15.00;99.90;;;;;;4966950;28;20240;-79
2022/06/01 05:21:58;;;;;;;5.35;3.90;;;15.50;99.90;;;;;;4973179;28;20218;-78
2022/06/01 05:24:25;;;;;;;2.75;2.53;;;15.90;99.90;;;;;;4987281;28;20263;-79
2022/06/01 05:26:52;;;;;;;1.92;1.70;;;16.40;99.90;;;;;;4986879;28;20258;-81
2022/06/01 05:29:19;;;;;;;4.43;1.52;;;16.80;99.90;;;;;;4986543;28;20215;-80
2022/06/01 05:31:46;;;;;;;1.60;1.20;;;17.20;99.90;;;;;;4987306;28;20604;-81
2022/06/01 05:34:14;;;;;;;0.90;0.90;;;17.50;99.90;;;;;;4986501;28;20211;-78
2022/06/01 05:36:41;;;;;;;3.83;0.80;;;17.90;99.90;;;;;;4986165;28;20209;-79
2022/06/01 05:39:08;;;;;;;6.93;1.20;;;18.20;99.90;;;;;;4987409;28;20619;-82
2022/06/01 05:41:35;;;;;;;1.80;0.80;;;18.40;99.90;;;;;;4986829;28;20235;-81
2022/06/01 05:44:02;;;;;;;1.80;0.80;;;18.60;99.90;;;;;;4983190;28;20208;-79
2022/06/01 05:46:30;;;;;;;0.65;0.50;;;18.80;99.90;;;;;;4967638;28;20205;-81
2022/06/01 05:48:57;;;;;;;1.30;0.55;;;19.00;99.90;;;;;;4966777;28;20279;-79
2022/06/01 05:51:25;;;;;;;1.92;0.82;;;19.30;99.90;;;;;;4967723;28;20201;-79
2022/06/01 05:53:52;;;;;;;1.40;0.60;;;19.40;99.90;;;;;;4980171;28;20231;-80
2022/06/01 05:56:19;;;;;;;0.80;0.52;;;19.60;99.90;;;;;;4985376;28;20652;-78
2022/06/01 05:58:47;;;;;;;1.33;0.75;;;19.70;99.90;;;;;;4986953;28;20214;-78
2022/06/01 06:01:16;;;;;;;0.98;0.70;;;19.80;99.90;;;;;;4986511;28;20242;-78
2022/06/01 06:03:43;;;;;;;1.10;0.70;;;19.90;99.90;;;;;;4985160;28;20222;-78
2022/06/01 06:06:15;;;;;;;2.63;1.10;;;20.00;99.90;;;;;;4984161;28;20299;-78
2022/06/01 06:08:48;;;;;;;2.22;1.20;;;20.20;99.90;;;;;;4985884;28;20549;-79
2022/06/01 06:11:17;;;;;;;2.15;1.40;;;20.30;99.90;;;;;;4985680;28;20297;-79
2022/06/01 06:13:44;;;;;;;3.05;1.80;;;20.30;99.90;;;;;;4985974;28;20211;-79
2022/06/01 06:16:12;;;;;;;2.85;1.75;;;20.40;99.90;;;;;;4984627;28;20330;-78
2022/06/01 06:18:40;;;;;;;2.80;2.60;;;20.50;99.90;;;;;;4986338;28;20212;-78
2022/06/01 06:21:07;;;;;;;2.63;2.40;;;20.20;99.90;;;;;;4986147;28;20382;-79
2022/06/01 06:23:34;;;;;;;3.35;2.40;;;20.00;99.90;;;;;;4984348;28;20208;-78
2022/06/01 06:26:04;;;;;;;3.13;2.35;;;20.10;99.90;;;;;;4986416;28;20319;-78
2022/06/01 06:28:32;;;;;;;3.78;2.10;;;20.20;99.90;;;;;;4986502;28;20597;-78
2022/06/01 06:30:59;;;;;;;2.60;1.90;;;20.30;99.90;;;;;;4983851;28;20210;-78
2022/06/01 06:33:26;;;;;;;2.75;2.45;;;20.40;99.90;;;;;;4966516;28;20709;-78
2022/06/01 06:35:58;;;;;;;4.38;2.20;;;20.40;99.90;;;;;;4966815;28;20197;-79
2022/06/01 06:38:26;;;;;;;2.10;1.90;;;20.40;99.90;;;;;;4965936;28;20205;-78
2022/06/01 06:40:54;;;;;;;2.63;1.50;;;20.40;99.90;;;;;;4966425;28;20247;-78
2022/06/01 06:43:23;;;;;;;3.22;1.50;;;20.30;99.90;;;;;;4966361;28;21006;-78
2022/06/01 06:45:50;;;;;;;1.98;1.40;;;20.40;99.90;;;;;;4966664;28;20706;-79
2022/06/01 06:48:18;;;;;;;1.88;1.52;;;20.60;99.90;;;;;;4966778;28;20216;-80
2022/06/01 06:50:45;;;;;;;2.10;1.30;;;20.60;99.90;;;;;;4966110;28;20200;-78
2022/06/01 06:53:12;;;;;;;1.83;1.30;;;20.60;99.90;;;;;;4966534;28;20586;-79
2022/06/01 06:55:39;;;;;;;2.10;1.13;;;20.50;99.90;;;;;;4983398;28;20623;-79
2022/06/01 06:58:09;;;;;;;2.28;1.27;;;20.30;99.90;;;;;;4985557;28;20358;-79
2022/06/01 07:00:38;;;;;;;2.35;1.08;;;20.40;99.90;;;;;;4985394;28;20230;-79
2022/06/01 07:03:06;;;;;;;2.30;1.60;;;20.20;99.90;;;;;;4985698;28;20238;-80
2022/06/01 07:08:18;;;;;;;0.70;0.60;;;20.00;99.90;;;;;;4984392;28;20574;-78
2022/06/01 07:10:45;;;;;;;4.53;1.00;;;19.90;99.90;;;;;;4985946;28;20207;-79
2022/06/01 07:13:12;;;;;;;1.00;0.80;;;19.70;99.90;;;;;;4985995;28;20204;-79
2022/06/01 07:15:41;;;;;;;0.85;0.77;;;19.60;99.90;;;;;;4984145;28;20231;-78
2022/06/01 07:18:08;;;;;;;1.25;0.70;;;19.30;99.90;;;;;;4967411;28;20498;-78
2022/06/01 07:20:35;;;;;;;1.08;0.95;;;19.60;99.90;;;;;;4970041;28;20319;-79
2022/06/01 07:23:02;;;;;;;2.25;1.05;;;19.70;99.90;;;;;;4973331;28;20679;-81
2022/06/01 07:25:29;;;;;;;1.38;0.93;;;19.70;99.90;;;;;;4989149;28;20715;-78
2022/06/01 07:27:57;;;;;;;0.82;0.80;;;19.70;99.90;;;;;;4987650;28;20216;-78
2022/06/01 07:30:24;;;;;;;1.65;0.90;;;19.60;99.90;;;;;;4989119;28;20223;-78
2022/06/01 07:32:53;;;;;;;1.98;1.40;;;19.50;99.90;;;;;;4989087;28;20203;-78
2022/06/01 07:35:20;;;;;;;3.80;1.20;;;19.10;99.90;;;;;;4982871;28;20214;-77
2022/06/01 07:43:20;;;;;;;2.30;1.25;;;18.40;99.90;;;;;;4970025;28;20217;-80
2022/06/01 07:45:48;;;;;;;2.33;1.13;;;18.40;99.90;;;;;;4969995;28;20208;-78
2022/06/01 07:48:17;;;;;;;2.08;0.82;;;18.60;99.90;;;;;;4969098;28;20529;-78
2022/06/01 07:50:45;;;;;;;4.00;0.90;;;19.00;99.90;;;;;;4969913;28;20224;-80
2022/06/01 07:53:12;;;;;;;4.07;1.40;;;19.10;99.90;;;;;;4969932;28;20213;-81
2022/06/01 07:55:41;;;;;;;2.85;0.90;;;19.00;99.90;;;;;;4980652;28;20218;-78
2022/06/01 07:58:09;;;;;;;1.20;0.95;;;18.90;99.90;;;;;;4988557;28;20306;-79
2022/06/01 08:00:36;;;;;;;1.92;0.90;;;19.40;99.90;;;;;;4988756;28;20228;-81
2022/06/01 08:03:04;;;;;;;3.80;1.05;;;19.70;99.90;;;;;;4987905;28;20192;-80
2022/06/01 08:05:33;;;;;;;1.88;0.90;;;19.80;99.90;;;;;;4988199;28;20204;-79
2022/06/01 08:08:00;;;;;;;2.90;1.02;;;19.50;99.90;;;;;;4987832;28;20262;-80
2022/06/01 08:10:27;;;;;;;1.77;1.10;;;19.00;99.90;;;;;;4970024;28;20216;-79
2022/06/01 08:13:09;;;;;;;1.77;1.30;;;19.30;99.90;;;;;;4969492;28;20517;-80
2022/06/01 08:15:39;;;;;;;3.08;1.23;;;19.60;99.90;;;;;;4969029;28;20200;-79
2022/06/01 08:18:07;;;;;;;1.60;1.08;;;20.20;99.90;;;;;;4974313;28;20211;-80
2022/06/01 08:20:36;;;;;;;2.63;1.45;;;20.20;99.90;;;;;;4987984;28;20286;-79
2022/06/01 08:23:03;;;;;;;4.82;1.60;;;20.10;99.90;;;;;;4988355;28;20290;-79
2022/06/01 08:25:30;;;;;;;2.00;1.75;;;19.80;99.90;;;;;;4988425;28;20219;-80
2022/06/01 08:27:58;;;;;;;1.98;1.27;;;19.30;99.90;;;;;;4987057;28;20687;-80
2022/06/01 08:30:27;;;;;;;1.55;1.08;;;19.10;99.90;;;;;;4987128;28;20601;-79
2022/06/01 08:32:54;;;;;;;2.97;1.40;;;19.00;99.90;;;;;;4988361;28;20232;-78
2022/06/01 08:35:25;;;;;;;3.33;1.60;;;19.00;99.90;;;;;;4982101;28;20224;-79
2022/06/01 08:37:54;;;;;;;3.13;1.50;;;19.00;99.90;;;;;;4968697;28;20203;-79
2022/06/01 08:40:24;;;;;;;2.25;1.90;;;18.60;99.90;;;;;;4968459;28;20196;-80
2022/06/01 08:42:58;;;;;;;2.03;1.70;;;18.50;99.90;;;;;;4968601;28;20320;-82
2022/06/01 08:45:26;;;;;;;5.05;1.70;;;18.30;99.90;;;;;;4969534;28;20212;-78
2022/06/01 08:47:53;;;;;;;2.88;1.40;;;18.10;99.90;;;;;;4968849;28;20207;-78
2022/06/01 08:50:25;;;;;;;1.38;1.20;;;17.90;99.90;;;;;;4968284;28;20208;-81
2022/06/01 08:52:56;;;;;;;4.60;1.58;;;17.70;99.90;;;;;;4969297;28;21090;-79
2022/06/01 08:55:23;;;;;;;3.60;1.30;;;17.50;99.90;;;;;;4968828;28;20210;-78
2022/06/01 08:57:58;;;;;;;2.78;1.70;;;17.40;99.90;;;;;;4968305;28;20637;-78
2022/06/01 09:00:30;;;;;;;6.95;3.50;;;17.40;99.90;;;;;;4969685;28;20239;-80
2022/06/01 09:03:07;;;;;;;3.58;2.00;;;17.30;99.90;;;;;;4969801;28;20579;-80
2022/06/01 09:05:43;;;;;;;3.38;1.92;;;17.10;99.90;;;;;;4975028;28;20196;-79
2022/06/01 09:08:18;;;;;;;2.97;2.03;;;17.10;99.90;;;;;;5004970;28;20209;-78
2022/06/01 09:10:59;;;;;;;4.00;1.90;;;16.90;99.90;;;;;;4992310;28;20219;-77
2022/06/01 09:13:32;;;;;;;3.03;1.50;;;16.90;99.90;;;;;;4990740;28;20203;-77
2022/06/01 09:16:03;;;;;;;5.53;1.80;;;17.10;99.90;;;;;;5002613;28;20521;-81
2022/06/01 09:18:40;;;;;;;4.43;1.75;;;17.30;99.90;;;;;;4983705;28;20232;-78
2022/06/01 09:24:08;;;;;;;3.13;1.80;;;17.50;99.90;;;;;;4995809;28;20246;-80
2022/06/01 09:26:35;;;;;;;2.75;1.73;;;17.60;99.90;;;;;;4988423;28;20204;-79
2022/06/01 09:29:03;;;;;;;2.28;1.50;;;17.60;99.90;;;;;;4987332;28;20208;-78
2022/06/01 09:31:37;;;;;;;3.38;1.98;;;18.10;99.90;;;;;;4987830;28;20208;-80
2022/06/01 09:34:17;;;;;;;2.85;2.05;;;18.50;99.90;;;;;;4987325;28;20215;-80
2022/06/01 09:36:56;;;;;;;4.20;2.15;;;18.70;99.90;;;;;;4986676;28;20628;-78
2022/06/01 09:39:25;;;;;;;2.67;1.52;;;18.50;99.90;;;;;;4986040;28;20212;-80
2022/06/01 09:41:52;;;;;;;3.25;1.80;;;18.30;99.90;;;;;;4986719;28;20239;-80
2022/06/01 09:44:34;;;;;;;2.47;1.70;;;18.10;99.90;;;;;;4987078;28;20204;-80
2022/06/01 09:47:03;;;;;;;1.98;1.60;;;17.80;99.90;;;;;;4974979;28;20208;-80
2022/06/01 09:49:32;;;;;;;2.28;1.88;;;17.60;99.90;;;;;;4968012;28;20513;-78
2022/06/01 09:52:02;;;;;;;2.35;2.03;;;17.60;99.90;;;;;;4981630;28;20672;-80
2022/06/01 09:54:32;;;;;;;3.45;1.90;;;17.70;99.90;;;;;;4986601;28;20216;-78
2022/06/01 09:57:17;;;;;;;3.03;2.00;;;17.50;99.90;;;;;;4986987;28;20200;-80
2022/06/01 10:08:12;;;;;;;4.80;1.85;;;17.50;99.90;;;;;;4983337;28;20262;-78
2022/06/01 10:10:55;;;;;;;3.78;1.90;;;17.80;99.90;;;;;;4986076;28;20606;-78
2022/06/01 10:13:29;;;;;;;2.42;1.88;;;18.20;99.90;;;;;;4986788;28;20229;-78
2022/06/01 10:16:00;;;;;;;3.63;2.10;;;18.70;99.90;;;;;;4986063;28;20208;-83
2022/06/01 10:18:31;;;;;;;2.28;1.90;;;19.20;99.90;;;;;;4985168;28;20207;-79
2022/06/01 10:21:02;;;;;;;2.60;2.00;;;19.30;99.90;;;;;;4986308;28;20204;-80
2022/06/01 10:23:36;;;;;;;2.15;1.50;;;19.00;99.90;;;;;;4974200;28;20307;-81
2022/06/01 10:26:11;;;;;;;5.13;2.35;;;19.10;99.90;;;;;;4966435;28;20216;-79
2022/06/01 10:28:43;;;;;;;3.60;2.70;;;19.50;99.90;;;;;;4966609;28;20255;-80
2022/06/01 10:31:26;;;;;;;2.85;2.40;;;19.40;99.90;;;;;;4986072;28;20845;-79
2022/06/01 10:34:00;;;;;;;2.60;2.40;;;19.60;99.90;;;;;;4987202;28;20200;-78
2022/06/01 10:36:38;;;;;;;3.28;2.50;;;19.40;99.90;;;;;;4985923;28;20203;-80
2022/06/01 10:39:10;;;;;;;6.10;2.70;;;19.00;99.90;;;;;;4978358;28;20204;-79
2022/06/01 10:41:45;;;;;;;5.15;2.67;;;18.50;99.90;;;;;;4966733;28;20241;-79
2022/06/01 10:44:17;;;;;;;3.78;2.60;;;18.20;99.90;;;;;;4966910;28;20320;-76
2022/06/01 10:46:50;;;;;;;3.55;2.78;;;17.90;99.90;;;;;;4967226;28;20209;-79
2022/06/01 10:49:28;;;;;;;4.35;3.20;;;17.50;99.90;;;;;;4967165;28;20209;-77
2022/06/01 10:52:03;;;;;;;5.55;3.00;;;17.20;99.90;;;;;;4967520;28;20207;-77
2022/06/01 10:54:41;;;;;;;3.35;3.03;;;17.10;99.90;;;;;;4971078;28;20212;-77
2022/06/01 10:57:13;;;;;;;4.10;2.80;;;17.00;99.90;;;;;;4970122;28;20216;-78
2022/06/01 10:59:40;;;;;;;2.83;2.47;;;16.90;99.90;;;;;;4970790;28;20296;-77
2022/06/01 11:02:35;;;;;;;6.32;3.17;;;16.80;99.90;;;;;;4975744;28;20713;-79
2022/06/01 11:05:20;;;;;;;5.15;3.35;;;16.80;99.90;;;;;;4989228;28;20216;-79
2022/06/01 11:08:11;;;;;;;4.78;3.28;;;16.80;99.90;;;;;;4990053;28;20224;-78
2022/06/01 11:10:50;;;;;;;4.68;3.15;;;16.80;99.90;;;;;;4989412;28;20196;-77
2022/06/01 11:13:34;;;;;;;5.47;3.30;;;16.80;99.90;;;;;;4982824;28;20215;-77
2022/06/01 11:16:09;;;;;;;3.28;2.83;;;16.90;99.90;;;;;;4970432;28;20302;-77
2022/06/01 11:18:51;;;;;;;4.38;3.38;;;17.00;99.90;;;;;;4969789;28;20283;-77
2022/06/01 11:21:25;;;;;;;3.70;3.03;;;17.00;99.90;;;;;;4981166;28;20212;-78
2022/06/01 11:24:05;;;;;;;4.00;3.00;;;16.90;99.90;;;;;;4989784;28;20199;-77
2022/06/01 11:26:47;;;;;;;5.80;3.55;;;16.80;99.90;;;;;;4986973;28;20330;-78
2022/06/01 11:29:25;;;;;;;5.82;3.35;;;16.70;99.90;;;;;;4970123;28;20216;-78
2022/06/01 11:31:54;;;;;;;5.72;3.67;;;16.70;99.90;;;;;;4969948;28;20205;-78
2022/06/01 11:34:27;;;;;;;4.82;3.78;;;16.80;99.90;;;;;;4969248;28;20219;-78
2022/06/01 11:37:01;;;;;;;5.35;3.53;;;17.10;99.90;;;;;;4974172;28;20212;-78
2022/06/01 11:39:32;;;;;;;5.13;3.58;;;17.30;99.90;;;;;;4988969;28;20206;-79
2022/06/01 11:42:06;;;;;;;3.50;3.03;;;17.20;99.90;;;;;;4988468;28;20342;-78
2022/06/01 11:44:37;;;;;;;4.57;3.55;;;17.10;99.90;;;;;;4988840;28;20693;-77
2022/06/01 11:47:09;;;;;;;4.07;2.88;;;16.80;99.90;;;;;;4988264;28;20644;-78
2022/06/01 11:49:38;;;;;;;5.15;3.03;;;16.70;99.90;;;;;;4988150;28;20227;-78
2022/06/01 11:52:34;;;;;;;3.15;2.33;;;16.60;99.90;;;;;;4988903;28;20214;-79
2022/06/01 11:55:20;;;;;;;4.75;3.08;;;16.50;99.90;;;;;;4964902;28;20218;-78
2022/06/01 11:57:53;;;;;;;3.63;3.15;;;16.70;99.90;;;;;;4988442;28;20600;-79
2022/06/01 12:00:33;;;;;;;6.75;3.22;;;16.80;99.90;;;;;;4988001;28;20686;-78
2022/06/01 12:03:24;;;;;;;3.95;2.90;;;17.00;99.90;;;;;;4988888;28;20317;-78
2022/06/01 12:06:02;;;;;;;6.75;2.70;;;17.10;99.90;;;;;;4987406;28;20227;-80
2022/06/01 12:08:32;;;;;;;4.32;2.53;;;17.20;99.90;;;;;;4982017;28;20232;-78
2022/06/01 12:11:03;;;;;;;3.00;2.70;;;17.10;99.90;;;;;;4979289;28;20224;-79
2022/06/01 12:13:33;;;;;;;4.25;2.33;;;17.10;99.90;;;;;;4977375;28;20211;-78
2022/06/01 12:16:21;;;;;;;2.00;1.65;;;17.20;99.90;;;;;;4981326;28;20211;-78
2022/06/01 12:19:08;;;;;;;4.05;2.00;;;17.20;99.90;;;;;;4989224;28;20671;-78
2022/06/01 12:21:53;;;;;;;2.53;1.52;;;17.20;99.90;;;;;;4973855;28;20207;-79
2022/06/01 12:30:17;;;;;;;2.00;1.35;;;17.10;99.90;;;;;;4969050;28;20239;-78
2022/06/01 12:33:21;;;;;;;2.67;1.45;;;17.10;99.90;;;;;;4969639;28;20201;-78
2022/06/01 12:35:53;;;;;;;3.08;1.52;;;17.30;99.90;;;;;;4983648;28;20212;-78
2022/06/01 12:38:31;;;;;;;2.00;1.17;;;17.30;99.90;;;;;;4987274;28;20207;-79
2022/06/01 12:41:05;;;;;;;2.75;1.90;;;17.10;99.90;;;;;;4988054;28;20338;-78
2022/06/01 12:43:32;;;;;;;4.57;1.70;;;17.10;99.90;;;;;;4988822;28;20231;-80
2022/06/01 12:45:59;;;;;;;2.28;1.33;;;17.00;99.90;;;;;;4989378;28;20215;-82
2022/06/01 12:48:27;;;;;;;3.38;1.63;;;17.10;99.90;;;;;;4987244;28;20299;-79
2022/06/01 12:50:58;;;;;;;3.20;1.20;;;17.20;99.90;;;;;;4970136;28;20222;-80
2022/06/01 12:53:27;;;;;;;2.08;1.40;;;17.10;99.90;;;;;;4970315;28;20201;-80
2022/06/01 12:56:07;;;;;;;2.08;1.50;;;17.10;99.90;;;;;;4971975;28;20208;-79
2022/06/01 12:58:36;;;;;;;1.70;1.60;;;17.20;99.90;;;;;;4990417;28;20323;-78
2022/06/01 13:01:04;;;;;;;4.45;2.00;;;17.50;99.90;;;;;;4989769;28;20518;-81
2022/06/01 13:03:33;;;;;;;3.88;2.35;;;17.50;99.90;;;;;;4990464;28;20335;-78
2022/06/01 13:06:09;;;;;;;2.85;2.00;;;17.30;99.90;;;;;;4991178;28;20277;-81
2022/06/01 13:08:39;;;;;;;2.20;1.95;;;17.30;99.90;;;;;;4991235;28;20928;-79
2022/06/01 13:11:23;;;;;;;2.92;2.63;;;17.30;99.90;;;;;;4990296;28;20215;-78
2022/06/01 13:13:50;;;;;;;4.03;2.78;;;17.60;99.90;;;;;;4990828;28;20206;-79
2022/06/01 13:16:19;;;;;;;3.05;2.85;;;17.50;99.90;;;;;;4989559;28;20204;-81
2022/06/01 13:18:47;;;;;;;3.03;2.72;;;17.20;99.90;;;;;;4989104;28;20208;-80
2022/06/01 13:21:23;;;;;;;3.60;2.42;;;17.00;99.90;;;;;;4988032;28;20302;-82
2022/06/01 13:23:54;;;;;;;3.35;2.40;;;17.10;99.90;;;;;;4989770;28;20219;-82
2022/06/01 13:26:29;;;;;;;2.67;2.40;;;17.60;99.90;;;;;;4988046;28;20228;-80
2022/06/01 13:29:08;;;;;;;4.57;1.98;;;18.00;99.90;;;;;;4986944;28;20218;-79
2022/06/01 13:31:36;;;;;;;3.30;2.20;;;18.30;99.90;;;;;;4986436;28;20226;-79
2022/06/01 13:34:07;;;;;;;3.17;2.03;;;18.50;99.90;;;;;;4986165;28;20214;-80
2022/06/01 13:36:40;;;;;;;2.22;1.92;;;18.70;99.90;;;;;;4987099;28;20200;-79
2022/06/01 13:39:10;;;;;;;1.80;1.55;;;18.80;99.90;;;;;;4986501;28;20200;-78